createdAt,value
2023-01-27T04:42:12.751Z,16.12
2023-01-27T04:44:41.714Z,16.65
2023-01-27T04:47:10.116Z,16.54
2023-01-27T04:49:38.204Z,16.49
2023-01-27T04:52:06.439Z,16.45
2023-01-27T04:54:34.453Z,16.43
2023-01-27T04:57:05.664Z,16.43
2023-01-27T04:59:33.663Z,16.40
2023-01-27T05:02:01.898Z,16.38
2023-01-27T05:04:31.393Z,16.37
2023-01-27T05:06:59.687Z,16.33
2023-01-27T05:09:27.963Z,16.27
2023-01-27T05:11:55.965Z,16.28
2023-01-27T05:14:26.164Z,16.26
2023-01-27T05:16:54.284Z,16.25
2023-01-27T05:19:22.329Z,16.23
2023-01-27T05:21:50.353Z,16.21
2023-01-27T05:24:18.272Z,16.21
2023-01-27T05:26:46.777Z,16.20
2023-01-27T05:29:14.846Z,16.26
2023-01-27T05:31:42.842Z,16.25
2023-01-27T05:34:10.831Z,16.17
2023-01-27T05:36:38.837Z,16.16
2023-01-27T05:39:08.922Z,16.15
2023-01-27T05:41:37.530Z,16.16
2023-01-27T05:44:06.385Z,16.17
2023-01-27T05:46:34.634Z,16.15
2023-01-27T05:49:05.261Z,16.15
2023-01-27T05:51:35.590Z,16.14
2023-01-27T05:54:03.644Z,16.17
2023-01-27T05:56:50.591Z,16.15
2023-01-27T05:59:18.657Z,16.13
2023-01-27T06:01:46.636Z,16.14
2023-01-27T06:04:15.073Z,16.17
2023-01-27T06:06:43.742Z,16.16
2023-01-27T06:09:11.754Z,16.14
2023-01-27T06:11:39.663Z,16.14
2023-01-27T06:14:11.504Z,16.14
2023-01-27T06:16:39.795Z,16.14
2023-01-27T06:19:07.753Z,16.14
2023-01-27T06:21:36.933Z,16.14
2023-01-27T06:24:05.443Z,16.14
2023-01-27T06:26:33.509Z,16.13
2023-01-27T06:29:01.599Z,16.13
2023-01-27T06:31:29.874Z,16.13
2023-01-27T06:33:58.209Z,16.13
2023-01-27T06:36:26.162Z,16.14
2023-01-27T06:38:54.429Z,16.14
2023-01-27T06:41:22.421Z,16.15
2023-01-27T06:43:52.881Z,16.15
2023-01-27T06:46:20.786Z,16.16
2023-01-27T06:48:48.782Z,16.15
2023-01-27T06:51:19.265Z,16.16
2023-01-27T06:53:47.213Z,16.16
2023-01-27T06:56:16.550Z,16.15
2023-01-27T06:58:45.940Z,16.15
2023-01-27T07:01:13.833Z,16.16
2023-01-27T07:03:43.674Z,16.17
2023-01-27T07:06:12.709Z,16.18
2023-01-27T07:08:40.870Z,16.18
2023-01-27T07:11:09.670Z,16.19
2023-01-27T07:13:37.687Z,16.19
2023-01-27T07:16:06.480Z,16.19
2023-01-27T07:18:35.621Z,16.19
2023-01-27T07:21:05.527Z,16.18
2023-01-27T07:23:34.346Z,16.19
2023-01-27T07:26:04.304Z,16.19
2023-01-27T07:28:33.826Z,16.19
2023-01-27T07:31:02.538Z,16.19
2023-01-27T07:33:30.812Z,16.19
2023-01-27T07:35:58.927Z,16.20
2023-01-27T07:38:26.910Z,16.21
2023-01-27T07:40:54.805Z,16.22
2023-01-27T07:43:22.695Z,16.22
2023-01-27T07:45:54.094Z,16.23
2023-01-27T07:48:22.125Z,16.24
2023-01-27T07:50:50.299Z,16.25
2023-01-27T07:53:18.452Z,16.24
2023-01-27T07:55:47.106Z,16.25
2023-01-27T07:58:15.721Z,16.24
2023-01-27T08:00:43.643Z,16.22
2023-01-27T08:03:31.598Z,16.22
2023-01-27T08:05:59.450Z,16.28
2023-01-27T08:08:28.331Z,16.28
2023-01-27T08:10:59.979Z,16.27
2023-01-27T10:28:41.497Z,16.41
2023-01-27T10:31:15.025Z,16.94
2023-01-27T10:33:55.630Z,16.88
2023-01-27T10:36:28.749Z,16.85
2023-01-27T10:39:03.748Z,16.81
2023-01-27T10:41:48.309Z,16.78
2023-01-27T10:44:31.695Z,16.76
2023-01-27T10:47:08.739Z,16.74
2023-01-27T10:49:57.436Z,16.72
2023-01-27T10:53:04.458Z,16.70
2023-01-27T10:55:46.917Z,16.69
2023-01-27T10:58:39.033Z,16.69
2023-01-27T11:01:23.963Z,16.69
2023-01-27T11:04:13.031Z,16.68
2023-01-27T11:06:41.973Z,16.67
2023-01-27T11:09:26.172Z,16.68
2023-01-27T11:11:54.261Z,16.70
2023-01-27T11:14:32.657Z,16.70
2023-01-27T11:17:13.290Z,16.71
2023-01-27T11:20:01.409Z,16.72
2023-01-27T11:22:58.161Z,16.74
2023-01-27T11:26:01.853Z,16.75
2023-01-27T11:28:41.877Z,16.75
2023-01-27T11:31:51.169Z,16.75
2023-01-27T11:34:33.616Z,16.74
2023-01-27T11:37:08.296Z,16.74
2023-01-27T11:39:37.539Z,16.75
2023-01-27T11:42:05.497Z,16.76
2023-01-27T11:44:34.297Z,16.77
2023-01-27T11:47:03.034Z,16.79
2023-01-27T11:49:34.275Z,16.81
2023-01-27T11:52:09.117Z,16.82
2023-01-27T11:54:47.270Z,16.83
2023-01-27T11:57:20.794Z,16.83
2023-01-27T11:59:50.928Z,16.84
2023-01-27T12:03:04.271Z,16.85
2023-01-27T12:05:34.845Z,16.86
2023-01-27T12:08:04.058Z,16.86
2023-01-27T12:10:42.233Z,16.86
2023-01-27T12:13:20.033Z,16.86
2023-01-27T12:15:56.434Z,16.86
2023-01-27T12:18:24.677Z,16.87
2023-01-27T12:21:04.132Z,16.88
2023-01-27T12:23:52.303Z,16.89
2023-01-27T12:26:37.661Z,16.90
2023-01-27T12:29:16.832Z,16.90
2023-01-27T12:31:47.407Z,16.90
2023-01-27T12:34:38.313Z,16.92
2023-01-27T12:37:06.898Z,16.94
2023-01-27T12:39:44.414Z,16.95
2023-01-27T12:42:41.934Z,16.96
2023-01-27T12:45:31.929Z,16.97
2023-01-27T12:48:09.237Z,16.92
2023-01-27T12:50:40.152Z,16.91
2023-01-27T12:53:11.332Z,16.93
2023-01-27T12:55:55.559Z,16.94
2023-01-27T12:58:39.647Z,16.96
2023-01-27T13:01:28.155Z,16.97
2023-01-27T13:04:18.550Z,16.98
2023-01-27T13:07:02.216Z,16.98
2023-01-27T13:09:57.377Z,16.99
2023-01-27T13:56:55.564Z,16.85
2023-01-27T13:59:24.148Z,16.85
2023-01-27T14:02:11.160Z,16.86
2023-01-27T14:04:49.722Z,16.88
2023-01-27T14:07:25.662Z,16.90
2023-01-27T14:09:56.821Z,16.93
2023-01-27T14:12:50.994Z,16.93
2023-01-27T14:15:41.340Z,16.96
2023-01-27T14:18:26.495Z,16.96
2023-01-27T14:20:56.203Z,16.97
2023-01-27T14:23:39.653Z,16.96
2023-01-27T14:26:15.015Z,16.98
2023-01-27T14:29:12.140Z,16.99
2023-01-27T14:31:58.523Z,17.00
2023-01-27T14:34:36.057Z,17.00
2023-01-27T14:37:10.226Z,16.98
2023-01-27T14:39:56.849Z,16.98
2023-01-27T14:42:30.429Z,16.98
2023-01-27T14:45:05.841Z,16.98
2023-01-27T14:47:48.212Z,16.99
2023-01-27T14:50:22.257Z,16.99
2023-01-27T14:52:56.618Z,16.99
2023-01-27T14:55:46.947Z,16.99
2023-01-27T14:58:48.235Z,17.04
2023-01-27T15:01:47.248Z,17.04
2023-01-27T15:04:24.069Z,17.04
2023-01-27T15:07:00.659Z,17.02
2023-01-27T15:09:32.468Z,17.02
2023-01-27T15:12:12.395Z,17.03
2023-01-27T15:14:59.344Z,17.03
2023-01-27T15:17:43.000Z,17.01
2023-01-27T15:20:23.238Z,16.98
2023-01-27T15:23:07.312Z,17.01
2023-01-27T15:25:44.469Z,17.02
2023-01-27T15:28:14.179Z,17.00
2023-01-27T15:31:24.760Z,16.97
2023-01-27T15:33:53.969Z,16.98
2023-01-27T15:36:27.688Z,16.98
2023-01-27T15:38:59.143Z,16.99
2023-01-27T15:41:27.287Z,16.99
2023-01-27T15:44:14.659Z,17.00
2023-01-27T15:46:49.378Z,17.01
2023-01-27T15:49:20.515Z,17.00
2023-01-27T15:51:50.292Z,17.01
2023-01-27T15:54:24.537Z,17.02
2023-01-27T15:56:54.129Z,17.02
2023-01-27T15:59:30.735Z,17.02
2023-01-27T16:02:19.160Z,17.03
2023-01-27T16:04:56.934Z,17.04
2023-01-27T16:07:31.116Z,17.04
2023-01-27T16:10:04.468Z,17.04
2023-01-27T16:12:48.364Z,17.04
2023-01-27T16:15:19.651Z,17.05
2023-01-27T16:18:06.342Z,17.04
2023-01-27T16:21:03.589Z,17.04
2023-01-27T16:23:50.337Z,17.04
2023-01-27T16:26:31.378Z,17.02
2023-01-27T16:29:25.383Z,17.02
2023-01-27T16:31:58.941Z,17.02
2023-01-27T16:34:40.442Z,17.00
2023-01-27T16:37:23.968Z,17.02
2023-01-27T16:39:59.289Z,17.02
2023-01-27T16:42:32.744Z,17.02
2023-01-27T16:45:02.810Z,17.02
2023-01-27T16:47:41.621Z,17.03
2023-01-27T16:50:39.129Z,17.04
2023-01-27T16:53:19.712Z,17.05
2023-01-27T16:55:58.918Z,17.04
2023-01-27T16:58:39.803Z,17.05
2023-01-27T17:01:43.700Z,17.05
2023-01-27T17:04:22.729Z,17.04
2023-01-27T17:07:03.270Z,17.03
2023-01-27T17:09:32.489Z,17.03
2023-01-27T17:12:00.466Z,17.03
2023-01-27T17:14:31.837Z,17.04
2023-01-27T17:17:04.882Z,17.05
2023-01-27T17:19:36.535Z,17.06
2023-01-27T17:22:12.128Z,17.07
2023-01-27T17:24:47.857Z,17.05
2023-01-27T17:27:26.559Z,17.04
2023-01-27T17:30:22.809Z,17.04
2023-01-27T17:32:52.003Z,17.04
2023-01-27T17:35:25.481Z,17.03
2023-01-27T17:37:53.648Z,17.02
2023-01-27T17:40:23.965Z,17.03
2023-01-27T17:42:51.909Z,17.02
2023-01-27T17:45:32.015Z,17.02
2023-01-27T17:48:00.371Z,17.03
2023-01-27T17:50:34.433Z,17.06
2023-01-27T17:53:02.476Z,17.06
2023-01-27T17:55:31.263Z,17.06
2023-01-27T17:58:04.709Z,17.06
2023-01-27T18:00:40.180Z,17.07
2023-01-27T18:03:14.832Z,17.08
2023-01-27T18:05:44.113Z,17.08
2023-01-27T18:08:12.297Z,17.08
2023-01-27T18:10:44.294Z,17.09
2023-01-27T18:13:14.090Z,17.08
2023-01-27T18:15:47.955Z,17.08
2023-01-27T18:18:30.859Z,17.08
2023-01-27T18:20:59.133Z,17.10
2023-01-27T18:23:32.478Z,17.10
2023-01-27T18:26:19.660Z,17.10
2023-01-27T18:28:56.084Z,17.09
2023-01-27T18:31:27.965Z,17.09
2023-01-27T18:34:20.395Z,17.09
2023-01-27T18:37:23.571Z,17.09
2023-01-27T18:39:52.156Z,17.09
2023-01-27T18:42:21.618Z,17.08
2023-01-27T18:44:50.946Z,17.08
2023-01-27T18:47:18.929Z,17.09
2023-01-27T18:49:55.915Z,17.10
2023-01-27T18:52:23.873Z,17.10
2023-01-27T18:55:14.002Z,17.10
2023-01-27T18:57:43.567Z,17.10
2023-01-27T19:00:20.384Z,17.10
2023-01-27T19:02:50.301Z,17.10
2023-01-27T19:05:29.968Z,17.10
2023-01-27T19:07:58.597Z,17.10
2023-01-27T19:10:30.012Z,17.10
2023-01-27T19:12:59.911Z,17.11
2023-01-27T19:15:29.567Z,17.10
2023-01-27T19:18:00.932Z,17.10
2023-01-27T19:20:31.106Z,17.10
2023-01-27T19:22:59.213Z,17.11
2023-01-27T19:25:29.591Z,17.12
2023-01-27T19:28:03.694Z,17.13
2023-01-27T19:30:37.520Z,17.13
2023-01-27T19:33:18.412Z,17.13
2023-01-27T19:35:47.709Z,17.13
2023-01-27T19:38:18.032Z,17.16
2023-01-27T19:40:46.715Z,17.17
2023-01-27T19:43:16.020Z,17.17
2023-01-27T19:45:45.182Z,17.16
2023-01-27T19:48:21.802Z,17.17
2023-01-27T19:50:51.611Z,17.18
2023-01-27T19:53:25.010Z,17.18
2023-01-27T19:55:54.388Z,17.19
2023-01-27T19:58:26.547Z,17.19
2023-01-27T20:00:55.171Z,17.19
2023-01-27T20:03:25.039Z,17.19
2023-01-27T20:05:54.977Z,17.19
2023-01-27T20:08:24.072Z,17.20
2023-01-27T20:10:52.761Z,17.20
2023-01-27T20:13:21.645Z,17.18
2023-01-27T20:15:50.331Z,17.18
2023-01-27T20:18:18.926Z,17.17
2023-01-27T20:20:47.600Z,17.17
2023-01-27T20:23:18.042Z,17.17
2023-01-27T20:25:46.408Z,17.17
2023-01-27T20:28:15.195Z,17.18
2023-01-27T20:30:43.673Z,17.19
2023-01-27T20:33:13.446Z,17.19
2023-01-27T20:35:41.336Z,17.19
2023-01-27T20:38:09.250Z,17.19
2023-01-27T20:40:37.575Z,17.21
2023-01-27T20:43:05.676Z,17.24
2023-01-27T20:45:33.693Z,17.26
2023-01-27T20:48:01.573Z,17.27
2023-01-27T20:50:31.019Z,17.28
2023-01-27T20:53:00.058Z,17.27
2023-01-27T20:55:29.748Z,17.29
2023-01-27T20:58:02.105Z,17.31
2023-01-27T21:00:30.363Z,17.29
2023-01-27T21:02:58.307Z,17.30
2023-01-27T21:05:29.470Z,17.27
2023-01-27T21:07:57.870Z,17.25
2023-01-27T21:10:25.923Z,17.24
2023-01-27T21:13:13.611Z,17.24
2023-01-27T21:15:47.835Z,17.25
2023-01-27T21:18:16.245Z,17.31
2023-01-27T21:20:51.153Z,17.31
2023-01-27T21:23:23.433Z,17.33
2023-01-27T21:25:51.401Z,17.33
2023-01-27T21:28:20.414Z,17.35
2023-01-27T21:30:48.458Z,17.35
2023-01-27T21:33:17.270Z,17.36
2023-01-27T21:35:54.188Z,17.37
2023-01-27T21:38:22.065Z,17.37
2023-01-27T21:40:52.409Z,17.40
2023-01-27T21:43:39.421Z,17.41
2023-01-27T21:46:07.762Z,17.38
2023-01-27T21:48:35.905Z,17.37
2023-01-27T21:51:04.725Z,17.43
2023-01-27T21:53:33.576Z,17.44
2023-01-27T21:56:07.445Z,17.45
2023-01-27T21:58:36.109Z,17.45
2023-01-27T22:01:05.722Z,17.46
2023-01-27T22:03:34.309Z,17.46
2023-01-27T22:26:30.075Z,18.03
2023-01-27T22:28:58.125Z,18.41
2023-01-27T22:31:25.945Z,18.29
2023-01-27T22:33:54.022Z,18.20
2023-01-27T22:36:22.466Z,18.08
2023-01-27T22:38:50.431Z,18.03
2023-01-27T22:41:19.265Z,17.97
2023-01-27T22:43:49.924Z,17.93
2023-01-27T22:46:17.832Z,17.88
2023-01-27T22:48:48.022Z,17.83
2023-01-27T22:51:16.079Z,17.80
2023-01-27T22:53:43.935Z,17.76
2023-01-27T22:56:11.783Z,17.73
2023-01-27T22:58:39.792Z,17.70
2023-01-27T23:01:07.964Z,17.69
2023-01-27T23:03:35.876Z,17.68
2023-01-27T23:06:05.467Z,17.65
2023-01-27T23:08:34.219Z,17.65
2023-01-27T23:11:03.796Z,17.63
2023-01-27T23:13:32.357Z,17.62
2023-01-27T23:16:00.810Z,17.61
2023-01-27T23:18:28.838Z,17.61
2023-01-27T23:21:02.725Z,17.60
2023-01-27T23:23:30.951Z,17.60
2023-01-27T23:25:59.424Z,17.58
2023-01-27T23:28:27.411Z,17.57
2023-01-27T23:30:55.628Z,17.56
2023-01-27T23:33:25.775Z,17.57
2023-01-27T23:35:57.444Z,17.57
2023-01-27T23:38:32.479Z,17.57
2023-01-27T23:41:18.310Z,17.58
2023-01-27T23:43:55.333Z,17.58
2023-01-27T23:46:24.709Z,17.58
2023-01-27T23:48:53.484Z,17.58
2023-01-27T23:51:21.892Z,17.58
2023-01-27T23:53:50.291Z,17.52
2023-01-27T23:56:19.793Z,17.49
2023-01-27T23:58:47.883Z,17.52
